Historique des mesures à Cassis (13260), France
Quotidien Résumé Mai 8, 2017 Unités:  US    Métrique   Métrique/US
« Précédent (Jour)
Suivant (Jour) »
Quotidien Hebdomadaire Mensuel Annuel Période au choix
  Maximum: Minimum: Moyenne:
Température: 32 °F 56.5 °F 61.9 °F
Point de rosée: 32 °F 43.5 °F 45.7 °F
Humidité: Humidity % 45 % 53 %
Vitesse du vent: WindSpeedKMH mph 0.0 mph 15.5 mph
Rafales: WindSpeedGustKMH mph - -
Vent:- - South
Pression: 0 in 29.7 in -
Précipitations: 0 in    
Historical Graphs
 
 
Mesures pour : Mai 8, 2017
Heure Temperature Point de rosée Pression Vent Vitesse du vent Rafales Humidité Pluie (par heure) Conditions
32 °F 32 °F 0 in Calm     Humidity % 0 in SoftwareType W/m2
00:10 61.7 °F 45.9 °F 29.8 in NW 26.2 mph 29.9 mph 56 % 0 in open2300-1.11 W/m2
01:10 60.4 °F 46.6 °F 29.8 in North 23.3 mph 49.2 mph 60 % 0 in open2300-1.11 W/m2
02:10 59.2 °F 46.6 °F 29.8 in NNE 17.2 mph 26.2 mph 63 % 0 in open2300-1.11 W/m2
03:10 58.3 °F 46.9 °F 29.8 in NW 25.6 mph 25.6 mph 66 % 0 in open2300-1.11 W/m2
04:10 57.4 °F 46.8 °F 29.8 in North 6.1 mph 8.7 mph 68 % 0 in open2300-1.11 W/m2
05:10 56.5 °F 46.8 °F 29.8 in NW 20.9 mph 28.2 mph 70 % 0 in open2300-1.11 W/m2
06:10 56.5 °F 46 °F 29.8 in Calm   5.0 mph 68 % 0 in open2300-1.11 W/m2
07:10 56.8 °F 46 °F 29.8 in NW 18.3 mph 23.0 mph 67 % 0 in open2300-1.11 W/m2
08:10 59.2 °F 46.6 °F 29.8 in NW 13.7 mph 15.4 mph 63 % 0 in open2300-1.11 W/m2
09:10 59.2 °F 45.7 °F 29.8 in NNW 27.7 mph 45.7 mph 61 % 0 in open2300-1.11 W/m2
10:10 62.2 °F 43.9 °F 29.8 in NNW 23.0 mph 52.9 mph 51 % 0 in open2300-1.11 W/m2
11:11 64.9 °F 45.3 °F 29.8 in WNW 23.3 mph 23.3 mph 49 % 0 in open2300-1.11 W/m2
12:10 68.7 °F 46.4 °F 29.8 in North 9.3 mph 23.0 mph 45 % 0 in open2300-1.11 W/m2
13:10 68.7 °F 46.9 °F 29.8 in North 23.8 mph 32.3 mph 46 % 0 in open2300-1.11 W/m2
14:10 69.4 °F 47.1 °F 29.8 in ENE 16.6 mph 29.4 mph 45 % 0 in open2300-1.11 W/m2
15:10 69.6 °F 47.1 °F 29.8 in NW 15.8 mph 16.9 mph 45 % 0 in open2300-1.11 W/m2
16:10 70.2 °F 48.4 °F 29.8 in WNW 22.7 mph 23.0 mph 46 % 0 in open2300-1.11 W/m2
17:10 69.6 °F 47.8 °F 29.8 in NW 7.6 mph 10.8 mph 46 % 0 in open2300-1.11 W/m2
18:10 68.7 °F 47.7 °F 29.7 in North 7.6 mph 13.4 mph 47 % 0 in open2300-1.11 W/m2
19:10 67.1 °F 46.8 °F 29.7 in NNW 18.0 mph 56.2 mph 48 % 0 in open2300-1.11 W/m2
20:10 65.1 °F 46 °F 29.7 in North 8.2 mph 21.9 mph 50 % 0 in open2300-1.11 W/m2
21:10 62.6 °F 44.8 °F 29.7 in North 19.8 mph 19.8 mph 52 % 0 in open2300-1.11 W/m2
22:10 61 °F 43.7 °F 29.8 in NNW 9.3 mph 20.9 mph 53 % 0 in open2300-1.11 W/m2
23:10 59.7 °F 43.5 °F 29.8 in ENE 2.6 mph 5.0 mph 55 % 0 in open2300-1.11 W/m2
Observations météo à CASSIS
WU-History script by Weather Underground - 1 mb